Latest Coastal Weather Observations for Rundle Island

IDQ60701

Issued at 6:42 am EST Friday 28 April 2017 (issued every 10 minutes, with the page automatically refreshed every 10 minutes)

About coastal observations | Map of coastal stations | Coastal observations for QLD | Marine services | Other Formats
Station Details ID: 039322 Name: RUNDLE ISLAND Lat: -23.53 Lon: 151.28 Height: 19.8 m
Data from the previous 72 hours. | See also: Recent months at Rundle Island
Date/Time
EST
Temp
°C
Wind Pressure Rain since
9am
mm
Weather Cloud Vis
km
Sea
Height
m
Swell
Dir  Spd
kts
Gust
kts
hPa Trend Height
m
Period
s
Dir
28/06:30am 15.4 SW 14 20 1016.1 - - - - - - - - -
28/06:00am 15.7 SSW 19 24 1015.6 - - - - - - - - -
28/05:30am 15.9 SSW 20 23 1015.4 - - - - - - - - -
28/05:00am 16.0 SSW 22 26 1015.3 - - - - - - - - -
28/04:30am 15.9 SSW 22 25 1015.3 - - - - - - - - -
28/04:00am 16.3 SSW 23 29 1015.3 - - - - - - - - -
28/03:30am 16.4 SSW 21 25 1015.3 - - - - - - - - -
28/03:00am 16.6 SSW 24 29 1015.5 - - - - - - - - -
28/02:30am 17.1 SSW 27 31 1015.7 - - - - - - - - -
28/02:00am 17.4 SSW 23 28 1016.0 - - - - - - - - -
28/01:30am 18.0 SSW 22 25 1016.1 - - - - - - - - -
28/01:00am 18.5 SSW 21 26 1015.9 - - - - - - - - -
28/12:30am 18.8 SSW 18 22 1015.9 - - - - - - - - -
28/12:00am 19.4 SSW 18 22 1015.6 - - - - - - - - -
 
Date/Time
EST
Temp
°C
Wind Pressure Rain since
9am
mm
Weather Cloud Vis
km
Sea
Height
m
Swell
Dir  Spd
kts
Gust
kts
hPa Trend Height
m
Period
s
Dir
27/11:30pm 19.6 SSW 16 19 1015.7 - - - - - - - - -
27/11:00pm 19.9 SSW 15 17 1015.8 - - - - - - - - -
27/10:30pm 20.0 SSW 14 16 1015.8 - - - - - - - - -
27/10:00pm 20.3 SSW 16 18 1015.8 - - - - - - - - -
27/09:30pm 20.7 SSW 14 19 1015.7 - - - - - - - - -
27/09:00pm 20.8 SW 13 16 1015.5 - - - - - - - - -
27/08:30pm 20.9 SW 13 15 1015.2 - - - - - - - - -
27/08:00pm 21.2 SW 15 17 1014.9 - - - - - - - - -
27/07:30pm 21.5 SW 15 19 1014.6 - - - - - - - - -
27/07:00pm 21.6 SW 10 13 1014.2 - - - - - - - - -
27/06:30pm 22.2 SW 12 15 1013.8 - - - - - - - - -
27/06:00pm 22.5 SW 13 15 1013.3 - - - - - - - - -
27/05:30pm 22.5 SW 13 15 1012.9 - - - - - - - - -
27/05:00pm 22.8 SW 14 17 1012.4 - - - - - - - - -
27/04:30pm 22.9 SW 10 12 1012.2 - - - - - - - - -
27/04:00pm 23.0 SW 10 13 1011.9 - - - - - - - - -
27/03:30pm 22.4 SSE 7 9 1012.1 - - - - - - - - -
27/03:00pm 22.2 SE 6 7 1012.1 - - - - - - - - -
27/02:30pm 22.3 SE 7 10 1012.2 - - - - - - - - -
27/02:00pm 22.0 SE 9 11 1012.0 - - - - - - - - -
27/01:30pm 21.9 SE 11 13 1012.2 - - - - - - - - -
27/01:00pm 21.8 SE 11 15 1012.4 - - - - - - - - -
27/12:30pm 22.0 SE 11 13 1012.6 - - - - - - - - -
27/12:00pm 21.6 SE 12 15 1013.1 - - - - - - - - -
27/11:30am 21.8 SE 11 13 1013.6 - - - - - - - - -
27/11:00am 22.0 SSE 12 13 1014.1 - - - - - - - - -
27/10:30am 22.0 SSE 12 14 1014.3 - - - - - - - - -
27/10:00am 22.4 S 13 15 1014.3 - - - - - - - - -
27/09:30am 22.1 SSE 13 16 1014.4 - - - - - - - - -
27/09:00am 22.3 S 15 16 1014.1 - - - - - - - - -
27/08:30am 22.5 S 14 16 1013.9 - - - - - - - - -
27/08:00am 22.4 SSW 16 17 1013.5 - - - - - - - - -
27/07:30am 22.3 SSW 16 19 1013.0 - - - - - - - - -
27/07:00am 22.5 S 16 18 1012.6 - - - - - - - - -
27/06:30am 22.6 S 16 18 1012.3 - - - - - - - - -
27/06:00am 22.6 SSW 13 17 1012.0 - - - - - - - - -
27/05:30am 22.8 SW 11 13 1011.8 - - - - - - - - -
27/05:00am 22.8 SW 10 12 1011.5 - - - - - - - - -
27/04:30am 23.1 SW 8 10 1011.2 - - - - - - - - -
27/04:00am 23.1 W 9 10 1011.1 - - - - - - - - -
27/03:00am 23.4 WNW 8 10 1011.3 - - - - - - - - -
27/02:30am 23.4 WNW 7 9 1011.4 - - - - - - - - -
27/02:00am 23.4 NW 8 9 1011.5 - - - - - - - - -
27/01:30am 23.5 NW 7 8 1011.8 - - - - - - - - -
27/01:00am 23.4 NW 5 6 1012.0 - - - - - - - - -
27/12:30am 23.2 WSW 6 7 1012.3 - - - - - - - - -
27/12:00am 23.6 SW 5 6 1012.5 - - - - - - - - -
 
Date/Time
EST
Temp
°C
Wind Pressure Rain since
9am
mm
Weather Cloud Vis
km
Sea
Height
m
Swell
Dir  Spd
kts
Gust
kts
hPa Trend Height
m
Period
s
Dir
26/11:30pm 23.7 SW 7 8 1012.6 - - - - - - - - -
26/11:00pm 24.4 NW 9 11 1012.4 - - - - - - - - -
26/10:30pm 24.4 NNW 14 17 1011.5 - - - - - - - - -
26/10:00pm 24.5 NNW 14 16 1011.7 - - - - - - - - -
26/09:30pm 24.5 NNW 14 15 1011.4 - - - - - - - - -
26/09:00pm 24.6 N 14 15 1011.7 - - - - - - - - -
26/08:30pm 24.6 N 14 16 1011.6 - - - - - - - - -
26/08:00pm 24.7 N 14 16 1011.4 - - - - - - - - -
26/07:30pm 24.5 N 12 14 1011.2 - - - - - - - - -
26/07:00pm 24.5 N 11 13 1011.2 - - - - - - - - -
26/06:30pm 24.4 N 10 12 1010.7 - - - - - - - - -
26/06:00pm 24.3 N 10 12 1010.4 - - - - - - - - -
26/05:30pm 24.4 N 11 13 1010.0 - - - - - - - - -
26/05:00pm 24.5 N 10 12 1010.0 - - - - - - - - -
26/04:30pm 24.8 N 10 10 1010.1 - - - - - - - - -
26/04:00pm 24.8 N 9 10 1010.2 - - - - - - - - -
26/03:30pm 24.8 N 9 10 1010.1 - - - - - - - - -
26/03:00pm 24.6 N 9 10 1010.3 - - - - - - - - -
26/02:30pm 24.3 N 8 9 1010.5 - - - - - - - - -
26/02:00pm 24.2 N 7 8 1010.8 - - - - - - - - -
26/01:30pm 24.0 N 7 8 1011.4 - - - - - - - - -
26/01:00pm 24.0 N 8 - 1011.9 - - - - - - - - -
26/12:00pm 23.7 NNW 7 8 1013.1 - - - - - - - - -
26/11:30am 24.1 NNW 7 7 1013.6 - - - - - - - - -
26/11:00am 23.8 NNW 5 6 1014.2 - - - - - - - - -
26/10:30am 23.5 N 3 4 1014.6 - - - - - - - - -
26/10:00am 24.1 CALM 0 0 1014.9 - - - - - - - - -
26/09:30am 25.6 CALM 0 0 1014.8 - - - - - - - - -
26/09:00am 23.0 SW 1 2 1015.0 - - - - - - - - -
26/08:30am 22.7 SW 3 4 1015.0 - - - - - - - - -
26/08:00am 22.4 SW 2 3 1014.9 - - - - - - - - -
26/07:30am 22.1 SW 3 5 1014.4 - - - - - - - - -
26/07:00am 22.4 SSW 5 6 1014.2 - - - - - - - - -
26/06:30am 22.0 SSW 6 7 1014.0 - - - - - - - - -
26/06:00am 22.0 SSW 6 7 1014.0 - - - - - - - - -
26/05:30am 22.0 SSW 5 6 1013.7 - - - - - - - - -
26/05:00am 22.1 SSW 5 6 1013.6 - - - - - - - - -
26/04:30am 22.1 SSW 6 7 1013.6 - - - - - - - - -
26/04:00am 22.2 SW 6 7 1013.8 - - - - - - - - -
26/03:30am 22.1 SW 5 5 1013.9 - - - - - - - - -
26/03:00am 22.4 SW 4 5 1014.1 - - - - - - - - -
26/02:30am 23.7 CALM 0 0 1014.2 - - - - - - - - -
26/02:00am 23.6 ENE 2 3 1014.1 - - - - - - - - -
26/01:30am 23.8 ENE 3 4 1014.5 - - - - - - - - -
26/01:00am 23.7 ENE 4 5 1014.4 - - - - - - - - -
26/12:30am 23.8 ENE 4 5 1014.6 - - - - - - - - -
26/12:00am 23.9 ENE 5 6 1015.0 - - - - - - - - -
 
Date/Time
EST
Temp
°C
Wind Pressure Rain since
9am
mm
Weather Cloud Vis
km
Sea
Height
m
Swell
Dir  Spd
kts
Gust
kts
hPa Trend Height
m
Period
s
Dir
25/11:30pm 24.0 ENE 6 7 1015.3 - - - - - - - - -
25/11:00pm 23.9 E 7 8 1015.4 - - - - - - - - -
25/10:30pm 24.0 E 8 9 1015.3 - - - - - - - - -
25/10:00pm 24.1 E 8 9 1015.5 - - - - - - - - -
25/09:30pm 24.0 E 9 11 1015.5 - - - - - - - - -
25/09:00pm 24.1 E 9 11 1015.8 - - - - - - - - -
25/08:30pm 24.0 E 8 10 1016.1 - - - - - - - - -
25/08:00pm 24.1 ESE 10 11 1016.1 - - - - - - - - -
25/07:30pm 24.1 ESE 11 12 1015.5 - - - - - - - - -
25/07:00pm 23.9 ESE 10 11 1015.2 - - - - - - - - -
25/06:30pm 23.8 ESE 10 11 1014.9 - - - - - - - - -
25/06:00pm 23.7 ESE 10 12 1014.7 - - - - - - - - -
25/05:30pm 23.8 ESE 10 11 1014.6 - - - - - - - - -
25/05:00pm 23.9 ESE 10 11 1014.5 - - - - - - - - -
25/04:30pm 24.1 ESE 10 11 1014.4 - - - - - - - - -
25/04:00pm 23.9 ESE 10 11 1014.4 - - - - - - - - -
25/03:30pm 24.0 ESE 10 11 1014.3 - - - - - - - - -
25/03:00pm 24.1 ESE 9 10 1014.5 - - - - - - - - -
25/02:30pm 24.2 ESE 9 11 1014.6 - - - - - - - - -
25/02:00pm 24.1 SE 9 10 1014.9 - - - - - - - - -
25/01:30pm 24.2 SE 8 9 1015.3 - - - - - - - - -
25/01:00pm 24.2 SSE 9 11 1015.7 - - - - - - - - -
25/12:30pm 23.6 SE 11 13 1016.1 - - - - - - - - -
25/12:00pm 23.9 SE 11 13 1016.4 - - - - - - - - -
25/11:30am 23.5 SE 10 12 1016.9 - - - - - - - - -
25/11:00am 23.2 SSE 11 12 1017.3 - - - - - - - - -
25/10:30am 23.1 SSE 12 14 1017.6 - - - - - - - - -
25/10:00am 23.0 SSE 13 15 1017.9 - - - - - - - - -
25/09:30am 22.5 SSE 13 15 1018.2 - - - - - - - - -
25/09:00am 22.3 S 13 15 1018.1 - - - - - - - - -
25/08:30am 22.1 S 13 14 1018.1 - - - - - - - - -
25/08:00am 22.1 S 14 15 1017.8 - - - - - - - - -
25/07:30am 22.3 SSE 14 15 1017.3 - - - - - - - - -
25/07:00am 22.1 SSE 14 16 1017.0 - - - - - - - - -

Other Formats:

Comma delimited format used in spreadsheet applications
http://www.bom.gov.au/fwo/IDQ60701/IDQ60701.94378.axf

JavaScript Object Notation format (JSON) in row-major order
http://www.bom.gov.au/fwo/IDQ60701/IDQ60701.94378.json